createdAt,value
2017-06-09T00:00:10.871Z,53.80
2017-06-09T00:02:37.121Z,54.00
2017-06-09T00:05:03.291Z,54.70
2017-06-09T00:07:29.469Z,55.90
2017-06-09T00:09:55.684Z,55.80
2017-06-09T00:12:21.861Z,54.90
2017-06-09T00:14:48.689Z,54.00
2017-06-09T00:17:15.668Z,53.70
2017-06-09T00:19:41.872Z,53.70
2017-06-09T00:22:08.044Z,54.30
2017-06-09T00:24:34.275Z,53.90
2017-06-09T00:27:00.461Z,54.20
2017-06-09T00:29:26.679Z,54.40
2017-06-09T00:31:52.864Z,54.30
2017-06-09T00:34:19.044Z,54.20
2017-06-09T00:36:45.284Z,53.80
2017-06-09T00:39:11.513Z,54.10
2017-06-09T00:41:37.697Z,54.50
2017-06-09T00:44:03.915Z,54.70
2017-06-09T00:46:30.827Z,55.20
2017-06-09T00:48:57.028Z,54.70
2017-06-09T00:51:23.265Z,55.50
2017-06-09T00:53:49.447Z,54.70
2017-06-09T00:56:15.647Z,55.40
2017-06-09T00:58:41.855Z,55.30
2017-06-09T01:01:08.051Z,55.10
2017-06-09T01:03:34.250Z,54.30
2017-06-09T01:06:00.448Z,54.40
2017-06-09T01:08:26.637Z,54.10
2017-06-09T01:10:52.847Z,54.70
2017-06-09T01:13:19.024Z,55.40
2017-06-09T01:15:45.196Z,55.50
2017-06-09T01:18:12.141Z,57.00
2017-06-09T01:20:39.073Z,57.30
2017-06-09T01:23:05.289Z,57.30
2017-06-09T01:25:31.473Z,57.90
2017-06-09T01:27:57.714Z,58.40
2017-06-09T01:30:23.951Z,59.00
2017-06-09T01:32:50.148Z,59.20
2017-06-09T01:35:16.355Z,60.60
2017-06-09T01:37:42.576Z,60.70
2017-06-09T01:40:08.807Z,60.10
2017-06-09T01:42:35.019Z,58.20
2017-06-09T01:45:01.261Z,59.20
2017-06-09T01:47:27.436Z,60.80
2017-06-09T01:49:53.636Z,63.40
2017-06-09T01:52:19.912Z,64.10
2017-06-09T01:54:46.125Z,65.20
2017-06-09T01:57:12.343Z,65.70
2017-06-09T01:59:38.572Z,66.50
2017-06-09T02:02:04.808Z,67.90
2017-06-09T02:04:31.009Z,68.10
2017-06-09T02:06:57.220Z,67.90
2017-06-09T02:09:23.443Z,67.30
2017-06-09T02:11:50.371Z,67.40
2017-06-09T02:14:17.328Z,67.10
2017-06-09T02:16:43.516Z,67.10
2017-06-09T02:19:09.691Z,66.90
2017-06-09T02:21:35.917Z,66.50
2017-06-09T02:24:02.093Z,66.30
2017-06-09T02:26:28.286Z,66.20
2017-06-09T02:28:54.508Z,65.90
2017-06-09T02:31:20.756Z,66.20
2017-06-09T02:33:46.949Z,68.10
2017-06-09T02:36:13.912Z,70.00
2017-06-09T02:38:40.111Z,69.90
2017-06-09T02:41:07.024Z,70.90
2017-06-09T02:43:33.252Z,70.60
2017-06-09T02:45:59.430Z,71.40
2017-06-09T02:48:25.617Z,71.30
2017-06-09T02:50:51.812Z,71.00
2017-06-09T02:53:18.040Z,71.40
2017-06-09T02:55:44.213Z,71.70
2017-06-09T02:58:10.387Z,71.80
2017-06-09T03:00:36.606Z,70.90
2017-06-09T03:03:02.784Z,71.00
2017-06-09T03:05:28.973Z,71.40
2017-06-09T03:07:55.165Z,70.80
2017-06-09T03:10:22.077Z,68.50
2017-06-09T03:12:48.317Z,68.50
2017-06-09T03:15:14.539Z,68.20
2017-06-09T03:17:40.733Z,67.90
2017-06-09T03:20:06.907Z,65.10
2017-06-09T03:22:33.106Z,65.50
2017-06-09T03:24:59.282Z,64.30
2017-06-09T03:27:27.044Z,67.00
2017-06-09T03:29:53.220Z,66.90
2017-06-09T03:32:25.356Z,66.90
2017-06-09T03:34:51.554Z,66.80
2017-06-09T03:37:18.473Z,67.00
2017-06-09T03:39:44.652Z,67.00
2017-06-09T03:42:10.859Z,64.40
2017-06-09T03:44:37.045Z,63.20
2017-06-09T03:47:03.229Z,61.40
2017-06-09T03:49:29.427Z,59.90
2017-06-09T03:51:56.359Z,64.60
2017-06-09T03:54:22.551Z,64.50
2017-06-09T03:56:48.868Z,66.00
2017-06-09T03:59:15.049Z,65.90
2017-06-09T04:01:41.961Z,67.00
2017-06-09T04:04:08.156Z,67.10
2017-06-09T04:06:34.340Z,67.10
2017-06-09T04:09:00.555Z,67.80
2017-06-09T04:11:26.733Z,67.00
2017-06-09T04:13:52.920Z,65.90
2017-06-09T04:16:19.135Z,57.70
2017-06-09T04:18:45.317Z,59.70
2017-06-09T04:21:11.491Z,61.00
2017-06-09T04:23:37.775Z,65.80
2017-06-09T04:26:03.957Z,66.30
2017-06-09T04:28:30.137Z,66.30
2017-06-09T04:30:56.355Z,65.70
2017-06-09T04:33:22.537Z,65.80
2017-06-09T04:35:48.772Z,66.20
2017-06-09T04:38:14.986Z,66.80
2017-06-09T04:40:41.171Z,66.90
2017-06-09T04:43:07.364Z,66.20
2017-06-09T04:45:34.318Z,63.00
2017-06-09T04:48:01.295Z,63.40
2017-06-09T04:50:27.616Z,63.40
2017-06-09T04:52:53.851Z,63.80
2017-06-09T04:55:20.024Z,62.00
2017-06-09T04:57:46.249Z,61.00
2017-06-09T05:00:12.430Z,59.40
2017-06-09T05:02:38.595Z,58.80
2017-06-09T05:05:04.788Z,58.50
2017-06-09T05:07:31.023Z,58.90
2017-06-09T05:09:57.194Z,58.90
2017-06-09T05:12:24.117Z,57.80
2017-06-09T05:14:50.331Z,57.80
2017-06-09T05:17:16.523Z,58.30
2017-06-09T05:19:42.720Z,57.70
2017-06-09T05:22:14.924Z,58.20
2017-06-09T05:24:41.139Z,57.60
2017-06-09T05:27:07.341Z,57.30
2017-06-09T05:29:37.240Z,57.00
2017-06-09T05:32:03.452Z,56.50
2017-06-09T05:34:29.656Z,56.30
2017-06-09T05:36:55.828Z,56.60
2017-06-09T05:39:22.072Z,57.20
2017-06-09T05:41:49.007Z,57.70
2017-06-09T05:44:15.224Z,57.70
2017-06-09T05:46:41.420Z,58.20
2017-06-09T05:49:07.595Z,58.00
2017-06-09T05:51:34.571Z,57.40
2017-06-09T05:54:00.736Z,57.40
2017-06-09T05:56:26.964Z,56.90
2017-06-09T05:58:53.144Z,56.40
2017-06-09T06:01:19.333Z,56.40
2017-06-09T06:03:45.543Z,56.30
2017-06-09T06:06:11.732Z,55.50
2017-06-09T06:08:37.912Z,54.80
2017-06-09T06:11:04.123Z,54.10
2017-06-09T06:13:30.301Z,54.30
2017-06-09T06:15:56.548Z,53.20
2017-06-09T06:18:22.724Z,52.50
2017-06-09T06:20:48.916Z,52.20
2017-06-09T06:23:15.192Z,52.30
2017-06-09T06:25:41.398Z,52.70
2017-06-09T06:28:07.599Z,52.50
2017-06-09T06:30:33.800Z,52.30
2017-06-09T06:32:59.987Z,51.30
2017-06-09T06:35:26.204Z,51.20
2017-06-09T06:37:52.395Z,50.40
2017-06-09T06:40:18.591Z,48.30
2017-06-09T06:42:44.788Z,47.60
2017-06-09T06:45:10.984Z,47.90
2017-06-09T06:47:37.192Z,47.20
2017-06-09T06:50:03.443Z,48.50
2017-06-09T06:52:29.635Z,47.80
2017-06-09T06:54:55.827Z,47.00
2017-06-09T06:57:22.106Z,47.50
2017-06-09T06:59:48.297Z,46.60
2017-06-09T07:02:14.552Z,47.40
2017-06-09T07:04:40.771Z,46.50
2017-06-09T07:07:06.972Z,46.10
2017-06-09T07:09:33.224Z,46.00
2017-06-09T07:11:59.424Z,45.80
2017-06-09T07:14:25.681Z,45.60
2017-06-09T07:16:51.905Z,44.50
2017-06-09T07:19:18.837Z,43.90
2017-06-09T07:21:45.072Z,43.90
2017-06-09T07:24:11.322Z,43.30
2017-06-09T07:26:37.516Z,44.10
2017-06-09T07:29:03.717Z,43.10
2017-06-09T07:31:29.940Z,42.90
2017-06-09T07:33:56.120Z,42.10
2017-06-09T07:36:22.300Z,42.20
2017-06-09T07:38:48.511Z,42.70
2017-06-09T07:41:14.700Z,40.70
2017-06-09T07:43:41.128Z,39.70
2017-06-09T07:46:08.076Z,41.80
2017-06-09T07:48:34.297Z,41.80
2017-06-09T07:51:00.545Z,40.20
2017-06-09T07:53:26.760Z,39.80
2017-06-09T07:55:52.962Z,39.30
2017-06-09T07:58:19.186Z,39.00
2017-06-09T08:00:45.376Z,39.70
2017-06-09T08:03:11.568Z,39.50
2017-06-09T08:05:37.780Z,37.90
2017-06-09T08:08:04.735Z,37.90
2017-06-09T08:10:31.712Z,38.20
2017-06-09T08:12:57.895Z,38.20
2017-06-09T08:15:24.086Z,37.30
2017-06-09T08:17:50.372Z,39.00
2017-06-09T08:20:16.596Z,38.30
2017-06-09T08:22:42.816Z,38.60
2017-06-09T08:25:09.753Z,40.60
2017-06-09T08:27:36.708Z,41.10
2017-06-09T08:30:03.688Z,41.70
2017-06-09T08:32:29.880Z,41.70
2017-06-09T08:34:56.059Z,41.50
2017-06-09T08:37:22.281Z,42.70
2017-06-09T08:39:48.472Z,43.70
2017-06-09T08:42:14.664Z,43.80
2017-06-09T08:44:40.868Z,44.80
2017-06-09T08:47:07.093Z,45.50
2017-06-09T08:49:33.298Z,44.80
2017-06-09T08:51:59.520Z,45.10
2017-06-09T08:54:25.712Z,47.20
2017-06-09T08:56:51.902Z,47.30
2017-06-09T08:59:18.156Z,47.50
2017-06-09T09:01:44.356Z,47.60
2017-06-09T09:04:10.537Z,47.60
2017-06-09T09:06:36.769Z,47.20
2017-06-09T09:09:03.020Z,47.40
2017-06-09T09:11:29.254Z,49.10
2017-06-09T09:13:55.453Z,48.00
2017-06-09T09:16:21.772Z,48.60
2017-06-09T09:18:48.004Z,48.50
2017-06-09T09:21:14.193Z,48.30
2017-06-09T09:23:40.416Z,48.90
2017-06-09T09:26:06.615Z,48.40
2017-06-09T09:28:32.826Z,49.50
2017-06-09T09:30:59.037Z,48.50
2017-06-09T09:33:25.969Z,49.50
2017-06-09T09:35:52.144Z,49.50
2017-06-09T09:38:18.371Z,50.30
2017-06-09T09:40:44.557Z,50.50
2017-06-09T09:43:10.732Z,49.90
2017-06-09T09:45:36.971Z,50.40
2017-06-09T09:48:03.159Z,50.80
2017-06-09T09:50:29.339Z,51.00
2017-06-09T09:52:55.588Z,51.70
2017-06-09T09:55:21.782Z,51.20
2017-06-09T09:57:48.032Z,51.80
2017-06-09T10:00:14.316Z,52.50
2017-06-09T10:02:40.517Z,52.60
2017-06-09T10:05:07.485Z,51.80
2017-06-09T10:07:33.709Z,51.80
2017-06-09T10:09:59.923Z,51.00
2017-06-09T10:12:26.145Z,50.60
2017-06-09T10:14:52.337Z,51.30
2017-06-09T10:17:18.532Z,50.20
2017-06-09T10:19:44.829Z,50.10
2017-06-09T10:22:11.745Z,50.50
2017-06-09T10:24:37.920Z,50.40
2017-06-09T10:27:04.157Z,49.70
2017-06-09T10:29:30.369Z,49.50
2017-06-09T10:31:56.560Z,50.00
2017-06-09T10:34:22.776Z,50.70
2017-06-09T10:36:48.952Z,50.30
2017-06-09T10:39:15.125Z,51.50
2017-06-09T10:41:41.369Z,51.30
2017-06-09T10:44:07.541Z,51.90
2017-06-09T10:46:33.732Z,51.90
2017-06-09T10:48:59.941Z,52.30
2017-06-09T10:51:26.119Z,53.00
2017-06-09T10:53:52.400Z,53.20
2017-06-09T10:56:18.645Z,53.20
2017-06-09T10:58:45.590Z,52.80
2017-06-09T11:01:11.835Z,52.60
2017-06-09T11:03:38.752Z,53.00
2017-06-09T11:06:04.956Z,52.90
2017-06-09T11:08:31.221Z,54.40
2017-06-09T11:10:57.413Z,53.90
2017-06-09T11:13:23.675Z,54.10
2017-06-09T11:15:49.885Z,54.50
2017-06-09T11:18:16.113Z,53.90
2017-06-09T11:20:42.363Z,53.80
2017-06-09T11:23:09.345Z,53.90
2017-06-09T11:25:35.552Z,53.80
2017-06-09T11:28:01.816Z,53.90
2017-06-09T11:30:28.001Z,54.40
2017-06-09T11:32:54.987Z,55.10
2017-06-09T11:35:21.296Z,55.10
2017-06-09T11:37:47.537Z,55.20
2017-06-09T11:40:13.760Z,55.70
2017-06-09T11:42:40.046Z,55.90
2017-06-09T11:45:06.321Z,56.00
2017-06-09T11:47:33.157Z,56.60
2017-06-09T11:49:59.435Z,55.60
2017-06-09T11:52:25.699Z,56.60
2017-06-09T11:54:52.017Z,56.30
2017-06-09T11:57:18.267Z,56.20
2017-06-09T11:59:44.464Z,56.20
2017-06-09T12:02:10.948Z,56.50
2017-06-09T12:04:37.206Z,56.40
2017-06-09T12:07:03.438Z,56.70
2017-06-09T12:09:29.654Z,55.90
2017-06-09T12:11:55.903Z,55.40
2017-06-09T12:14:22.188Z,54.40
2017-06-09T12:16:48.635Z,53.60
2017-06-09T12:19:14.807Z,55.10
2017-06-09T12:21:41.737Z,57.20
2017-06-09T12:24:07.963Z,57.00
2017-06-09T12:26:34.173Z,56.10
2017-06-09T12:29:00.375Z,55.20
2017-06-09T12:31:26.587Z,54.60
2017-06-09T12:33:52.779Z,55.00
2017-06-09T12:36:19.708Z,56.00
2017-06-09T12:38:45.953Z,56.00
2017-06-09T12:41:12.896Z,56.00
2017-06-09T12:43:39.849Z,56.60
2017-06-09T12:46:06.845Z,55.80
2017-06-09T12:48:33.057Z,55.70
2017-06-09T12:50:59.273Z,55.20
2017-06-09T12:53:25.468Z,56.00
2017-06-09T12:55:51.695Z,55.70
2017-06-09T12:58:17.920Z,57.00
2017-06-09T13:00:44.116Z,56.10
2017-06-09T13:03:10.352Z,55.20
2017-06-09T13:05:36.560Z,55.10
2017-06-09T13:08:02.820Z,55.00
2017-06-09T13:10:29.146Z,56.50
2017-06-09T13:12:55.342Z,56.00
2017-06-09T13:15:21.572Z,56.00
2017-06-09T13:17:47.789Z,56.50
2017-06-09T13:20:13.979Z,57.60
2017-06-09T13:22:40.983Z,59.40
2017-06-09T13:25:07.187Z,59.30
2017-06-09T13:27:34.140Z,59.80
2017-06-09T13:30:00.365Z,60.30
2017-06-09T13:32:26.590Z,59.90
2017-06-09T13:34:52.854Z,60.70
2017-06-09T13:37:19.115Z,61.70
2017-06-09T13:39:46.044Z,64.10
2017-06-09T13:42:12.238Z,64.10
2017-06-09T13:44:38.471Z,63.60
2017-06-09T13:47:04.666Z,62.70
2017-06-09T13:49:30.861Z,61.20
2017-06-09T13:51:57.824Z,59.90
2017-06-09T13:54:24.012Z,59.90
2017-06-09T13:56:50.239Z,60.80
2017-06-09T13:59:16.432Z,59.70
2017-06-09T14:01:42.632Z,58.50
2017-06-09T14:04:08.840Z,59.40
2017-06-09T14:06:35.763Z,58.20
2017-06-09T14:09:02.056Z,58.10
2017-06-09T14:11:28.261Z,58.20
2017-06-09T14:13:54.460Z,54.30
2017-06-09T14:16:20.709Z,54.50
2017-06-09T14:18:47.664Z,55.20
2017-06-09T14:21:13.908Z,55.20
2017-06-09T14:23:40.128Z,55.60
2017-06-09T14:26:06.323Z,54.30
2017-06-09T14:28:32.552Z,54.10
2017-06-09T14:30:59.509Z,52.90
2017-06-09T14:33:26.570Z,52.10
2017-06-09T14:35:52.764Z,52.10
2017-06-09T14:38:18.981Z,52.90
2017-06-09T14:40:45.228Z,54.00
2017-06-09T14:43:11.419Z,54.40
2017-06-09T14:45:37.682Z,54.10
2017-06-09T14:48:03.938Z,54.60
2017-06-09T14:50:30.178Z,55.40
2017-06-09T14:52:56.416Z,53.90
2017-06-09T14:55:22.643Z,55.10
2017-06-09T14:57:48.854Z,54.80
2017-06-09T15:00:15.085Z,54.80
2017-06-09T15:02:41.342Z,54.20
2017-06-09T15:05:07.539Z,55.50
2017-06-09T15:07:33.732Z,55.70
2017-06-09T15:09:59.964Z,54.70
2017-06-09T15:12:26.170Z,55.50
2017-06-09T15:14:52.363Z,55.20
2017-06-09T15:17:18.607Z,54.70
2017-06-09T15:19:44.812Z,55.20
2017-06-09T15:22:11.008Z,55.20
2017-06-09T15:24:37.241Z,55.30
2017-06-09T15:27:03.443Z,56.80
2017-06-09T15:29:29.665Z,55.90
2017-06-09T15:31:55.933Z,54.30
2017-06-09T15:34:22.136Z,54.50
2017-06-09T15:36:49.129Z,54.00
2017-06-09T15:39:15.356Z,54.00
2017-06-09T15:41:41.555Z,54.80
2017-06-09T15:44:07.755Z,54.60
2017-06-09T15:46:33.972Z,54.50
2017-06-09T15:49:00.190Z,54.90
2017-06-09T15:51:26.388Z,55.20
2017-06-09T15:53:52.841Z,55.60
2017-06-09T15:56:19.037Z,55.80
2017-06-09T15:58:45.269Z,54.60
2017-06-09T16:01:11.504Z,55.00
2017-06-09T16:03:37.695Z,55.70
2017-06-09T16:06:03.923Z,55.00
2017-06-09T16:08:30.883Z,54.00
2017-06-09T16:10:57.100Z,54.00
2017-06-09T16:13:24.069Z,54.70
2017-06-09T16:15:50.313Z,54.60
2017-06-09T16:18:16.572Z,55.20
2017-06-09T16:20:42.784Z,55.30
2017-06-09T16:23:08.995Z,54.90
2017-06-09T16:25:35.233Z,55.00
2017-06-09T16:28:01.472Z,55.40
2017-06-09T16:30:27.669Z,55.70
2017-06-09T16:32:53.995Z,55.70
2017-06-09T16:35:20.180Z,56.20
2017-06-09T16:37:46.374Z,56.60
2017-06-09T16:40:15.066Z,56.40
2017-06-09T16:42:41.286Z,56.60
2017-06-09T16:45:07.511Z,56.70
2017-06-09T16:47:33.764Z,56.70
2017-06-09T16:49:59.964Z,57.20
2017-06-09T16:52:26.193Z,56.70
2017-06-09T16:54:52.436Z,57.30
2017-06-09T16:57:18.629Z,57.30
2017-06-09T16:59:44.819Z,56.80
2017-06-09T17:02:11.153Z,57.40
2017-06-09T17:04:37.377Z,57.20
2017-06-09T17:07:04.335Z,56.40
2017-06-09T17:09:30.556Z,56.30
2017-06-09T17:11:57.521Z,56.00
2017-06-09T17:14:23.791Z,56.00
2017-06-09T17:16:49.989Z,56.10
2017-06-09T17:19:16.230Z,56.10
2017-06-09T17:21:42.438Z,56.10
2017-06-09T17:24:08.640Z,55.80
2017-06-09T17:26:35.665Z,56.10
2017-06-09T17:29:01.873Z,56.00
2017-06-09T17:31:28.096Z,56.40
2017-06-09T17:33:54.314Z,56.90
2017-06-09T17:36:20.522Z,57.00
2017-06-09T17:38:46.761Z,57.50
2017-06-09T17:41:12.959Z,57.60
2017-06-09T17:43:39.159Z,58.40
2017-06-09T17:46:05.390Z,58.30
2017-06-09T17:48:31.607Z,59.20
2017-06-09T17:50:57.883Z,59.90
2017-06-09T17:53:24.145Z,59.50
2017-06-09T17:55:50.340Z,59.80
2017-06-09T17:58:16.566Z,60.50
2017-06-09T18:00:42.829Z,60.60
2017-06-09T18:03:09.020Z,63.50
2017-06-09T18:05:35.239Z,72.20
2017-06-09T18:08:01.470Z,78.20
2017-06-09T18:10:27.692Z,83.30
2017-06-09T18:12:53.909Z,85.10
2017-06-09T18:15:20.176Z,87.80
2017-06-09T18:17:46.402Z,90.30
2017-06-09T18:20:12.656Z,91.20
2017-06-09T18:22:38.894Z,91.20
2017-06-09T18:25:05.137Z,93.10
2017-06-09T18:27:31.355Z,91.40
2017-06-09T18:29:57.560Z,92.30
2017-06-09T18:32:23.798Z,94.70
2017-06-09T18:34:49.986Z,96.50
2017-06-09T18:37:16.166Z,98.00
2017-06-09T18:39:42.445Z,99.90
2017-06-09T18:42:08.620Z,99.90
2017-06-09T18:44:34.833Z,99.90
2017-06-09T18:47:01.105Z,99.90
2017-06-09T18:49:27.627Z,99.90
2017-06-09T18:51:54.577Z,99.90
2017-06-09T18:54:20.765Z,99.90
2017-06-09T18:56:47.048Z,99.90
2017-06-09T18:59:13.238Z,99.90
2017-06-09T19:01:39.437Z,99.90
2017-06-09T19:04:05.711Z,99.90
2017-06-09T19:06:32.685Z,99.90
2017-06-09T19:08:58.869Z,99.90
2017-06-09T19:11:25.153Z,99.90
2017-06-09T19:13:51.480Z,99.90
2017-06-09T19:16:17.727Z,99.90
2017-06-09T19:18:43.968Z,99.90
2017-06-09T19:21:10.237Z,99.90
2017-06-09T19:23:37.167Z,99.90
2017-06-09T19:26:03.401Z,99.90
2017-06-09T19:28:30.328Z,99.90
2017-06-09T19:30:56.514Z,99.90
2017-06-09T19:33:22.757Z,99.90
2017-06-09T19:35:48.935Z,99.90
2017-06-09T19:38:15.125Z,99.90
2017-06-09T19:40:41.336Z,99.90
2017-06-09T19:43:07.591Z,99.90
2017-06-09T19:45:33.778Z,99.90
2017-06-09T19:48:00.036Z,99.90
2017-06-09T19:50:26.296Z,99.90
2017-06-09T19:52:52.485Z,99.90
2017-06-09T19:55:18.665Z,99.90
2017-06-09T19:57:44.915Z,99.90
2017-06-09T20:00:11.112Z,99.90
2017-06-09T20:02:37.311Z,99.90
2017-06-09T20:05:03.542Z,99.90
2017-06-09T20:07:29.743Z,99.90
2017-06-09T20:09:55.945Z,99.90
2017-06-09T20:12:22.191Z,99.90
2017-06-09T20:14:48.446Z,99.90
2017-06-09T20:17:14.690Z,99.90
2017-06-09T20:19:41.687Z,99.90
2017-06-09T20:22:07.908Z,99.90
2017-06-09T20:24:34.092Z,99.90
2017-06-09T20:27:00.306Z,99.90
2017-06-09T20:29:26.498Z,99.90
2017-06-09T20:31:52.725Z,99.90
2017-06-09T20:34:18.949Z,99.90
2017-06-09T20:36:45.436Z,99.90
2017-06-09T20:39:12.399Z,99.90
2017-06-09T20:41:38.640Z,99.90
2017-06-09T20:44:04.858Z,99.90
2017-06-09T20:46:31.051Z,99.90
2017-06-09T20:48:57.291Z,99.90
2017-06-09T20:51:24.244Z,99.90
2017-06-09T20:53:50.423Z,99.90
2017-06-09T20:56:16.611Z,99.90
2017-06-09T20:58:42.805Z,99.90
2017-06-09T21:01:09.024Z,99.90
2017-06-09T21:03:35.240Z,99.90
2017-06-09T21:06:01.458Z,99.90
2017-06-09T21:08:27.729Z,99.90
2017-06-09T21:10:54.679Z,99.90
2017-06-09T21:13:20.872Z,99.90
2017-06-09T21:15:47.103Z,99.90
2017-06-09T21:18:13.284Z,99.90
2017-06-09T21:20:39.500Z,99.90
2017-06-09T21:23:05.711Z,99.90
2017-06-09T21:25:32.650Z,99.90
2017-06-09T21:27:58.864Z,99.90
2017-06-09T21:30:25.097Z,99.90
2017-06-09T21:32:51.283Z,99.90
2017-06-09T21:35:17.555Z,99.90
2017-06-09T21:37:43.750Z,99.90
2017-06-09T21:40:09.920Z,99.90
2017-06-09T21:42:36.881Z,99.90
2017-06-09T21:45:03.066Z,99.90
2017-06-09T21:47:29.251Z,99.90
2017-06-09T21:49:55.472Z,99.90
2017-06-09T21:52:21.656Z,99.90
2017-06-09T21:54:47.833Z,99.90
2017-06-09T21:57:14.056Z,99.90
2017-06-09T21:59:40.235Z,99.90
2017-06-09T22:02:06.420Z,99.90
2017-06-09T22:04:32.646Z,99.90
2017-06-09T22:06:58.864Z,99.90
2017-06-09T22:09:25.049Z,99.90
2017-06-09T22:11:52.056Z,99.90
2017-06-09T22:14:18.333Z,99.90
2017-06-09T22:16:45.283Z,99.90
2017-06-09T22:19:12.246Z,99.90
2017-06-09T22:21:38.506Z,99.90
2017-06-09T22:24:04.749Z,99.90
2017-06-09T22:26:30.981Z,99.90
2017-06-09T22:28:57.164Z,99.90
2017-06-09T22:31:23.385Z,99.90
2017-06-09T22:33:49.576Z,99.90
2017-06-09T22:36:15.823Z,99.90
2017-06-09T22:38:42.788Z,99.90
2017-06-09T22:41:08.991Z,99.90
2017-06-09T22:43:35.915Z,99.90
2017-06-09T22:46:02.120Z,99.90
2017-06-09T22:48:28.311Z,99.90
2017-06-09T22:50:54.494Z,99.90
2017-06-09T22:53:20.718Z,99.90
2017-06-09T22:55:46.940Z,99.90
2017-06-09T22:58:13.122Z,99.90
2017-06-09T23:00:39.295Z,99.90
2017-06-09T23:03:05.505Z,99.90
2017-06-09T23:05:31.696Z,99.90
2017-06-09T23:07:57.892Z,99.90
2017-06-09T23:10:24.115Z,99.90
2017-06-09T23:12:50.319Z,99.90
2017-06-09T23:15:16.527Z,99.90
2017-06-09T23:17:42.752Z,99.90
2017-06-09T23:20:08.933Z,99.90
2017-06-09T23:22:55.923Z,99.90
2017-06-09T23:25:22.136Z,99.90
2017-06-09T23:27:48.413Z,99.90
2017-06-09T23:30:15.391Z,99.90
2017-06-09T23:32:41.604Z,99.90
2017-06-09T23:35:07.822Z,99.90
2017-06-09T23:37:34.793Z,99.90
2017-06-09T23:40:00.982Z,99.90
2017-06-09T23:42:27.897Z,99.90
2017-06-09T23:44:54.123Z,99.90
2017-06-09T23:47:20.312Z,99.90
2017-06-09T23:49:46.491Z,99.90
2017-06-09T23:52:12.720Z,99.90
2017-06-09T23:54:39.007Z,99.90
2017-06-09T23:57:05.207Z,99.90
2017-06-09T23:59:31.392Z,99.90
